Time;durP1;ratioP1;P1;durP2;ratioP2;P2;SDS_P1;SDS_P2;PMS_P1;PMS_P2;Temp;Humidity;BMP_temperature;BMP_pressure;BME280_temperature;BME280_humidity;BME280_pressure;Samples;Min_cycle;Max_cycle;Signal;HPM_P1;HPM_P2
2023/03/06 00:01:39;;;;;;;10.10;7.03;;;;;;;1.93;93.22;95883.72;5070370;28;20220;-55
2023/03/06 00:04:07;;;;;;;9.60;7.10;;;;;;;1.95;93.61;95889.63;5070512;28;20206;-56
2023/03/06 00:06:34;;;;;;;9.20;7.57;;;;;;;2.02;93.78;95881.41;5070447;28;20237;-55
2023/03/06 00:09:02;;;;;;;8.03;6.87;;;;;;;2.08;94.21;95876.56;5070618;28;20202;-56
2023/03/06 00:11:28;;;;;;;12.53;7.70;;;;;;;2.10;93.71;95872.06;5070233;28;20635;-54
2023/03/06 00:13:55;;;;;;;10.50;7.40;;;;;;;2.18;93.61;95868.91;5070084;28;20633;-55
2023/03/06 00:16:21;;;;;;;9.80;7.33;;;;;;;2.28;93.15;95875.97;5069893;28;20187;-54
2023/03/06 00:18:48;;;;;;;9.73;7.80;;;;;;;2.31;93.04;95859.25;5069651;28;20218;-55
2023/03/06 00:21:14;;;;;;;9.63;7.47;;;;;;;2.34;93.18;95864.22;5070199;28;20206;-56
2023/03/06 00:23:41;;;;;;;11.10;7.43;;;;;;;2.30;95.10;95861.00;5070162;28;20203;-56
2023/03/06 00:26:09;;;;;;;9.90;7.97;;;;;;;2.37;93.99;95858.81;5070721;28;20206;-56
2023/03/06 00:28:36;;;;;;;9.73;7.33;;;;;;;2.41;92.17;95855.84;5074073;28;20209;-55
2023/03/06 00:31:03;;;;;;;10.60;7.67;;;;;;;2.50;92.87;95856.97;5073501;28;20198;-56
2023/03/06 00:33:29;;;;;;;8.40;6.97;;;;;;;2.51;92.61;95851.59;5073949;28;20633;-55
2023/03/06 00:35:56;;;;;;;11.20;8.03;;;;;;;2.53;92.43;95854.13;5072924;28;20264;-55
2023/03/06 00:38:24;;;;;;;12.57;7.63;;;;;;;2.54;92.88;95842.75;5073061;28;20221;-54
2023/03/06 00:40:50;;;;;;;9.30;7.33;;;;;;;2.53;93.73;95851.50;5073564;28;20222;-54
2023/03/06 00:43:18;;;;;;;10.23;8.03;;;;;;;2.59;93.70;95848.44;5073542;28;20199;-56
2023/03/06 00:45:44;;;;;;;10.87;7.63;;;;;;;2.57;93.57;95837.28;5073635;28;20207;-55
2023/03/06 00:48:11;;;;;;;9.90;8.07;;;;;;;2.62;93.55;95827.34;5073130;28;20241;-55
2023/03/06 00:50:37;;;;;;;10.50;7.80;;;;;;;2.67;93.78;95832.22;5073719;28;20199;-55
2023/03/06 00:53:04;;;;;;;11.17;8.67;;;;;;;2.66;93.24;95826.16;5073008;28;20202;-55
2023/03/06 00:55:32;;;;;;;10.77;8.10;;;;;;;2.69;94.29;95833.78;5073373;28;20202;-55
2023/03/06 00:57:59;;;;;;;11.30;8.17;;;;;;;2.67;93.70;95825.22;5073367;28;20290;-55
2023/03/06 01:00:27;;;;;;;11.90;8.00;;;;;;;2.66;93.04;95823.53;5073401;28;20199;-55
2023/03/06 01:02:54;;;;;;;9.03;7.50;;;;;;;2.78;92.80;95821.78;5072942;28;20211;-56
2023/03/06 01:05:21;;;;;;;11.30;7.97;;;;;;;2.77;93.44;95826.19;5073355;28;20222;-55
2023/03/06 01:07:47;;;;;;;12.03;8.47;;;;;;;2.78;93.62;95817.41;5072231;28;20222;-54
2023/03/06 01:10:14;;;;;;;12.33;8.43;;;;;;;2.82;93.55;95812.78;5073087;28;20199;-55
2023/03/06 01:12:40;;;;;;;12.37;8.20;;;;;;;2.86;93.79;95806.38;5072745;28;20214;-56
2023/03/06 01:15:09;;;;;;;11.60;7.60;;;;;;;2.85;93.19;95805.56;5073328;28;20225;-56
2023/03/06 01:17:37;;;;;;;10.90;8.20;;;;;;;2.86;93.37;95799.41;5072723;28;20221;-55
2023/03/06 01:20:04;;;;;;;10.47;7.80;;;;;;;2.88;92.28;95789.66;5073116;28;20206;-54
2023/03/06 01:22:33;;;;;;;10.97;8.23;;;;;;;2.81;94.00;95785.84;5072171;28;20220;-56
2023/03/06 01:25:00;;;;;;;13.37;9.67;;;;;;;2.86;92.73;95773.28;5074818;28;20217;-55
2023/03/06 01:27:26;;;;;;;14.47;9.23;;;;;;;2.79;93.07;95766.88;5077051;28;20266;-56
2023/03/06 01:29:53;;;;;;;11.73;8.53;;;;;;;2.81;92.74;95764.97;5076509;28;20213;-56
2023/03/06 01:32:20;;;;;;;14.53;9.50;;;;;;;2.85;92.52;95763.78;5076757;28;20207;-54
2023/03/06 01:34:48;;;;;;;14.97;10.23;;;;;;;2.84;92.56;95764.72;5074035;28;20213;-55
2023/03/06 01:37:14;;;;;;;14.10;9.33;;;;;;;2.84;91.45;95762.09;5071942;28;20542;-55
2023/03/06 01:39:43;;;;;;;14.20;9.37;;;;;;;2.76;91.74;95751.44;5072194;28;20202;-55
2023/03/06 01:42:10;;;;;;;12.43;8.20;;;;;;;2.68;92.05;95759.03;5072338;28;20245;-55
2023/03/06 01:44:36;;;;;;;11.50;8.23;;;;;;;2.72;90.99;95746.56;5072254;28;20543;-54
2023/03/06 01:47:03;;;;;;;10.20;7.27;;;;;;;2.67;90.72;95743.47;5072652;28;20215;-55
2023/03/06 01:49:32;;;;;;;10.10;7.73;;;;;;;2.68;90.58;95740.75;5071688;28;20291;-55
2023/03/06 01:52:02;;;;;;;11.10;7.90;;;;;;;2.61;90.39;95747.38;5071997;28;20198;-55
2023/03/06 01:54:30;;;;;;;10.07;7.07;;;;;;;2.55;91.73;95742.63;5072332;28;20304;-55
2023/03/06 01:57:00;;;;;;;10.83;8.47;;;;;;;2.59;90.72;95738.81;5072317;28;20195;-53
2023/03/06 01:59:27;;;;;;;11.53;7.80;;;;;;;2.58;89.91;95746.78;5072306;28;20210;-55
2023/03/06 02:01:55;;;;;;;10.23;7.63;;;;;;;2.49;89.90;95733.47;5070891;28;20537;-55
2023/03/06 02:04:21;;;;;;;11.03;7.70;;;;;;;2.46;89.56;95730.28;5071814;28;20207;-54
2023/03/06 02:06:48;;;;;;;9.53;7.47;;;;;;;2.36;89.49;95724.94;5071664;28;20274;-55
2023/03/06 02:09:16;;;;;;;9.80;7.60;;;;;;;2.37;89.28;95723.16;5071790;28;20207;-56
2023/03/06 02:11:44;;;;;;;9.30;6.83;;;;;;;2.34;89.32;95718.16;5072061;28;20194;-55
2023/03/06 02:14:13;;;;;;;8.40;7.20;;;;;;;2.33;89.12;95713.91;5071100;28;21423;-53
2023/03/06 02:16:41;;;;;;;10.40;7.77;;;;;;;2.27;89.56;95716.94;5070064;28;20221;-55
2023/03/06 02:19:12;;;;;;;9.93;7.70;;;;;;;2.23;89.30;95718.16;5071523;28;20201;-55
2023/03/06 02:21:38;;;;;;;9.77;7.77;;;;;;;2.23;88.54;95720.75;5071416;28;20205;-55
2023/03/06 02:24:23;;;;;;;10.70;7.60;;;;;;;2.18;88.83;95712.44;5071610;28;20635;-55
2023/03/06 02:26:52;;;;;;;10.17;7.27;;;;;;;2.10;89.13;95712.16;5071815;28;20199;-55
2023/03/06 02:29:22;;;;;;;11.23;7.53;;;;;;;1.96;89.90;95701.00;5071518;28;20531;-56
2023/03/06 02:31:49;;;;;;;9.77;7.20;;;;;;;1.82;89.96;95700.34;5071520;28;20205;-55
2023/03/06 02:34:52;;;;;;;12.90;7.97;;;;;;;1.77;90.52;95700.69;5071119;28;20243;-54
2023/03/06 02:37:18;;;;;;;11.10;7.17;;;;;;;1.81;89.89;95691.69;5071556;28;20215;-55
2023/03/06 02:39:49;;;;;;;10.30;7.67;;;;;;;1.80;90.48;95687.44;5070230;28;20216;-55
2023/03/06 02:42:22;;;;;;;10.97;7.33;;;;;;;1.69;91.67;95687.41;5071318;28;20195;-55
2023/03/06 02:44:49;;;;;;;11.03;7.20;;;;;;;1.56;92.20;95680.59;5071021;28;20203;-55
2023/03/06 02:47:16;;;;;;;9.03;7.27;;;;;;;1.56;90.31;95681.41;5070711;28;20241;-54
2023/03/06 02:49:42;;;;;;;9.60;7.50;;;;;;;1.48;90.95;95671.56;5070672;28;20332;-55
2023/03/06 02:52:09;;;;;;;11.43;8.17;;;;;;;1.52;89.83;95672.19;5071514;28;20213;-55
2023/03/06 02:54:35;;;;;;;10.93;8.07;;;;;;;1.54;88.73;95680.69;5071348;28;20212;-56
2023/03/06 02:57:02;;;;;;;12.57;7.90;;;;;;;1.48;90.63;95682.00;5070915;28;20627;-55
2023/03/06 02:59:29;;;;;;;12.00;7.40;;;;;;;1.45;90.79;95676.97;5071006;28;20209;-54
2023/03/06 03:01:56;;;;;;;10.57;8.00;;;;;;;1.43;91.25;95675.44;5070418;28;20209;-55
2023/03/06 03:04:23;;;;;;;11.00;8.10;;;;;;;1.41;92.30;95677.34;5070824;28;21366;-55
2023/03/06 03:06:49;;;;;;;11.53;7.37;;;;;;;1.41;91.22;95674.72;5071120;28;20206;-55
2023/03/06 03:09:16;;;;;;;9.57;7.30;;;;;;;1.37;91.55;95674.13;5070490;28;20221;-55
2023/03/06 03:11:43;;;;;;;9.70;7.57;;;;;;;1.34;92.01;95674.34;5071171;28;20210;-55
2023/03/06 03:14:09;;;;;;;9.97;7.87;;;;;;;1.34;91.96;95674.34;5073927;28;20213;-54
2023/03/06 03:16:37;;;;;;;10.00;7.67;;;;;;;1.29;91.14;95667.78;5076485;28;20197;-55
2023/03/06 03:19:04;;;;;;;11.13;7.33;;;;;;;1.26;92.34;95671.47;5078055;28;20198;-55
2023/03/06 03:21:30;;;;;;;10.43;7.57;;;;;;;1.27;92.36;95672.28;5072227;28;20197;-56
2023/03/06 03:23:57;;;;;;;10.13;7.57;;;;;;;1.25;92.51;95674.16;5070478;28;20215;-55
2023/03/06 03:26:23;;;;;;;11.27;7.90;;;;;;;1.24;93.75;95670.72;5070654;28;20212;-54
2023/03/06 03:28:49;;;;;;;10.00;7.70;;;;;;;1.18;93.93;95673.78;5069991;28;20229;-55
2023/03/06 03:31:16;;;;;;;10.40;7.77;;;;;;;1.18;95.21;95675.53;5070728;28;20197;-56
2023/03/06 03:33:44;;;;;;;12.07;8.10;;;;;;;1.15;94.80;95667.94;5073840;28;20206;-55
2023/03/06 03:36:10;;;;;;;10.73;7.70;;;;;;;1.07;96.00;95665.91;5074446;28;20566;-55
2023/03/06 03:38:37;;;;;;;12.10;7.73;;;;;;;1.12;95.70;95665.56;5071559;28;20202;-55
2023/03/06 03:41:04;;;;;;;11.40;7.87;;;;;;;1.08;96.17;95658.91;5071041;28;20549;-56
2023/03/06 03:43:31;;;;;;;12.17;8.00;;;;;;;1.05;95.43;95662.59;5070026;28;20212;-55
2023/03/06 03:45:57;;;;;;;11.37;7.93;;;;;;;1.04;96.83;95660.91;5070773;28;20205;-54
2023/03/06 03:48:24;;;;;;;13.57;8.63;;;;;;;1.02;95.75;95659.38;5070154;28;20245;-54
2023/03/06 03:50:51;;;;;;;12.10;8.20;;;;;;;0.98;96.04;95662.19;5070446;28;20209;-55
2023/03/06 03:53:18;;;;;;;12.00;8.40;;;;;;;0.95;96.18;95657.22;5069843;28;20210;-55
2023/03/06 03:55:46;;;;;;;13.03;8.10;;;;;;;1.05;95.54;95667.78;5070764;28;20259;-54
2023/03/06 03:58:13;;;;;;;10.50;7.70;;;;;;;1.09;95.21;95658.00;5070333;28;20220;-55
2023/03/06 04:00:39;;;;;;;11.70;7.70;;;;;;;1.05;95.17;95656.53;5071151;28;20214;-54
2023/03/06 04:03:06;;;;;;;13.97;8.27;;;;;;;1.04;96.18;95662.69;5073774;28;20212;-54
2023/03/06 04:05:32;;;;;;;11.23;8.20;;;;;;;0.99;96.53;95658.63;5074306;28;20205;-56
2023/03/06 04:08:01;;;;;;;12.77;8.10;;;;;;;0.98;96.67;95657.00;5074306;28;20535;-56
2023/03/06 04:10:28;;;;;;;11.53;8.33;;;;;;;1.02;96.57;95656.75;5073835;28;20205;-55
2023/03/06 04:12:54;;;;;;;12.07;8.13;;;;;;;0.96;96.46;95658.84;5073926;28;20231;-54
2023/03/06 04:15:21;;;;;;;11.33;8.17;;;;;;;0.97;95.43;95657.09;5073901;28;20202;-54
2023/03/06 04:17:47;;;;;;;11.33;8.70;;;;;;;0.94;95.80;95663.34;5073805;28;20201;-55
2023/03/06 04:20:14;;;;;;;9.80;7.60;;;;;;;0.93;96.52;95653.88;5074144;28;20220;-55
2023/03/06 04:22:40;;;;;;;12.10;7.93;;;;;;;0.94;96.79;95652.94;5074297;28;20195;-56
2023/03/06 04:25:09;;;;;;;11.30;8.30;;;;;;;0.98;96.00;95664.78;5073884;28;20219;-56
2023/03/06 04:27:35;;;;;;;12.07;8.37;;;;;;;1.00;95.94;95659.47;5073469;28;20558;-56
2023/03/06 04:30:02;;;;;;;12.43;8.23;;;;;;;1.00;96.50;95654.25;5073712;28;20193;-55
2023/03/06 04:32:30;;;;;;;11.07;7.73;;;;;;;1.04;96.10;95658.31;5073497;28;20206;-56
2023/03/06 04:34:56;;;;;;;11.67;8.87;;;;;;;1.02;97.00;95651.56;5073809;28;20217;-56
2023/03/06 04:37:25;;;;;;;13.20;8.63;;;;;;;1.03;97.21;95648.03;5073970;28;20259;-55
2023/03/06 04:39:52;;;;;;;10.20;8.03;;;;;;;1.00;96.75;95642.06;5072803;28;20209;-55
2023/03/06 04:42:20;;;;;;;15.03;9.33;;;;;;;1.04;96.59;95636.66;5073390;28;20205;-55
2023/03/06 04:44:46;;;;;;;14.73;8.67;;;;;;;1.07;96.56;95636.41;5073042;28;20231;-55
2023/03/06 04:47:13;;;;;;;11.50;8.40;;;;;;;1.02;97.28;95636.78;5073089;28;20190;-55
2023/03/06 04:49:39;;;;;;;12.03;7.97;;;;;;;0.99;97.62;95631.78;5072997;28;20242;-55
2023/03/06 04:52:06;;;;;;;12.23;8.30;;;;;;;1.00;97.96;95631.66;5073458;28;20212;-56
2023/03/06 04:54:33;;;;;;;12.10;8.27;;;;;;;0.97;98.26;95629.28;5073184;28;20208;-55
2023/03/06 04:57:00;;;;;;;12.00;8.67;;;;;;;0.99;98.25;95632.59;5073809;28;20259;-56
2023/03/06 04:59:28;;;;;;;10.63;8.10;;;;;;;1.00;98.72;95639.47;5072957;28;20217;-54
2023/03/06 05:01:54;;;;;;;12.83;8.53;;;;;;;1.04;98.88;95640.09;5072515;28;20197;-55
2023/03/06 05:04:21;;;;;;;12.17;9.20;;;;;;;1.04;98.97;95642.69;5073012;28;20224;-55
2023/03/06 05:06:49;;;;;;;11.90;9.17;;;;;;;1.04;98.71;95634.03;5073580;28;20216;-53
2023/03/06 05:09:15;;;;;;;13.90;9.13;;;;;;;1.02;99.28;95635.94;5072916;28;20240;-56
2023/03/06 05:11:42;;;;;;;14.10;10.30;;;;;;;1.07;99.42;95639.03;5072490;28;20192;-56
2023/03/06 05:14:10;;;;;;;16.37;10.40;;;;;;;1.11;98.14;95640.47;5071780;28;20668;-56
2023/03/06 05:16:38;;;;;;;18.73;11.40;;;;;;;1.11;98.69;95640.47;5073043;28;20213;-55
2023/03/06 05:19:06;;;;;;;16.87;11.67;;;;;;;1.12;98.38;95642.16;5072491;28;20632;-56
2023/03/06 05:21:33;;;;;;;18.07;11.00;;;;;;;1.21;98.39;95644.06;5073186;28;20195;-55
2023/03/06 05:23:59;;;;;;;18.53;11.77;;;;;;;1.16;99.30;95648.78;5074060;28;20303;-54
2023/03/06 05:26:26;;;;;;;17.20;11.90;;;;;;;1.20;99.09;95637.22;5074661;28;20209;-55
2023/03/06 05:28:54;;;;;;;18.23;12.10;;;;;;;1.21;99.33;95641.47;5073453;28;20234;-53
2023/03/06 05:31:20;;;;;;;16.80;11.57;;;;;;;1.20;100.00;95634.63;5072536;28;20209;-55
2023/03/06 05:33:48;;;;;;;18.77;12.37;;;;;;;1.18;99.89;95636.47;5072126;28;20195;-55
2023/03/06 05:36:14;;;;;;;18.50;12.27;;;;;;;1.21;99.50;95637.09;5072703;28;20204;-55
2023/03/06 05:38:41;;;;;;;16.57;11.37;;;;;;;1.27;98.94;95641.88;5071957;28;20205;-56
2023/03/06 05:41:11;;;;;;;17.57;12.47;;;;;;;1.31;98.63;95639.88;5072524;28;20211;-55
2023/03/06 05:43:41;;;;;;;17.87;11.30;;;;;;;1.29;98.48;95642.59;5072078;28;20228;-55
2023/03/06 05:46:08;;;;;;;18.30;11.53;;;;;;;1.28;98.47;95648.72;5072208;28;20298;-54
2023/03/06 05:48:36;;;;;;;17.63;12.00;;;;;;;1.31;98.86;95658.13;5072149;28;20571;-53
2023/03/06 05:51:08;;;;;;;18.37;12.83;;;;;;;1.38;98.69;95661.94;5072734;28;20208;-55
2023/03/06 05:53:35;;;;;;;20.00;12.77;;;;;;;1.38;98.88;95654.94;5072291;28;20670;-56
2023/03/06 05:56:04;;;;;;;16.93;12.27;;;;;;;1.43;98.45;95657.22;5072415;28;20292;-56
2023/03/06 05:58:32;;;;;;;15.83;11.97;;;;;;;1.46;98.61;95672.59;5072402;28;20206;-55
2023/03/06 06:01:00;;;;;;;17.80;12.20;;;;;;;1.44;97.84;95669.28;5071634;28;20218;-56
2023/03/06 06:03:27;;;;;;;18.17;11.53;;;;;;;1.47;98.72;95669.06;5072470;28;20196;-56
2023/03/06 06:05:53;;;;;;;15.53;10.93;;;;;;;1.54;98.45;95670.28;5071670;28;20661;-56
2023/03/06 06:08:21;;;;;;;18.20;11.40;;;;;;;1.57;97.70;95670.06;5071981;28;20234;-56
2023/03/06 06:10:48;;;;;;;16.40;11.07;;;;;;;1.58;97.51;95665.69;5072074;28;20232;-55
2023/03/06 06:13:14;;;;;;;18.60;11.10;;;;;;;1.64;97.51;95673.88;5072093;28;20201;-55
2023/03/06 06:15:41;;;;;;;17.97;11.57;;;;;;;1.73;96.92;95674.97;5070769;28;20568;-55
2023/03/06 06:18:07;;;;;;;18.47;11.70;;;;;;;1.74;97.20;95669.63;5072105;28;20232;-55
2023/03/06 06:20:34;;;;;;;15.80;10.87;;;;;;;1.77;97.23;95677.22;5071781;28;20201;-55
2023/03/06 06:23:03;;;;;;;17.43;11.00;;;;;;;1.82;96.58;95680.34;5071548;28;20214;-56
2023/03/06 06:25:33;;;;;;;15.10;10.67;;;;;;;1.78;95.24;95673.69;5071620;28;20506;-55
2023/03/06 06:28:02;;;;;;;15.57;9.90;;;;;;;1.88;95.70;95673.81;5071929;28;20535;-55
2023/03/06 06:30:29;;;;;;;17.43;12.17;;;;;;;1.94;94.81;95673.38;5071246;28;20202;-55
2023/03/06 06:32:55;;;;;;;19.40;12.80;;;;;;;2.00;94.18;95681.56;5071532;28;20560;-55
2023/03/06 06:35:22;;;;;;;20.13;13.43;;;;;;;2.14;91.95;95679.69;5071002;28;20260;-54
2023/03/06 06:37:48;;;;;;;20.17;12.90;;;;;;;2.24;90.10;95691.94;5071635;28;20201;-55
2023/03/06 06:40:15;;;;;;;20.03;13.53;;;;;;;2.27;89.94;95696.06;5071386;28;20191;-56
2023/03/06 06:42:43;;;;;;;18.03;12.40;;;;;;;2.31;89.87;95700.97;5071349;28;20194;-55
2023/03/06 06:45:12;;;;;;;18.00;11.97;;;;;;;2.34;90.55;95692.06;5070090;28;20209;-55
2023/03/06 06:47:40;;;;;;;20.10;12.20;;;;;;;2.29;90.41;95689.00;5071016;28;20202;-56
2023/03/06 06:50:08;;;;;;;17.00;11.27;;;;;;;2.30;90.75;95690.66;5070928;28;20226;-54
2023/03/06 06:52:35;;;;;;;17.57;11.97;;;;;;;2.23;91.52;95684.25;5070062;28;20209;-56
2023/03/06 06:55:01;;;;;;;17.20;11.47;;;;;;;2.24;92.14;95691.09;5071359;28;20210;-56
2023/03/06 06:57:28;;;;;;;17.67;12.27;;;;;;;2.34;92.56;95686.84;5070822;28;20212;-53
2023/03/06 06:59:55;;;;;;;17.40;11.50;;;;;;;2.42;90.12;95689.72;5071542;28;20546;-56
2023/03/06 07:02:22;;;;;;;20.00;12.03;;;;;;;2.50;89.37;95697.78;5070634;28;20214;-56
2023/03/06 07:04:49;;;;;;;13.90;10.97;;;;;;;2.57;89.69;95698.97;5072113;28;20210;-56
2023/03/06 07:07:15;;;;;;;16.83;11.90;;;;;;;2.67;87.82;95702.53;5071520;28;20206;-55
2023/03/06 07:09:42;;;;;;;16.13;11.00;;;;;;;2.72;86.75;95694.38;5071416;28;20222;-55
2023/03/06 07:12:09;;;;;;;16.97;11.63;;;;;;;2.79;87.08;95699.00;5071768;28;20232;-56
2023/03/06 07:14:36;;;;;;;18.47;12.07;;;;;;;2.84;88.18;95694.22;5073372;28;20205;-55
2023/03/06 07:17:03;;;;;;;16.23;10.67;;;;;;;2.96;88.26;95695.91;5070722;28;20198;-54
2023/03/06 07:19:30;;;;;;;15.90;10.43;;;;;;;3.09;85.90;95695.75;5071280;28;20201;-53
2023/03/06 07:21:58;;;;;;;16.90;10.67;;;;;;;3.17;84.34;95700.38;5071372;28;20194;-56
2023/03/06 07:24:25;;;;;;;16.57;10.60;;;;;;;3.25;83.55;95698.84;5080161;28;20201;-56
2023/03/06 07:26:52;;;;;;;17.80;11.57;;;;;;;3.33;81.32;95698.22;5076625;28;20209;-55
2023/03/06 07:29:18;;;;;;;18.57;13.17;;;;;;;3.35;81.60;95698.91;5076813;28;20242;-55
2023/03/06 07:31:45;;;;;;;15.87;11.60;;;;;;;3.37;82.39;95699.63;5075866;28;20219;-56
2023/03/06 07:34:14;;;;;;;16.70;11.97;;;;;;;3.37;79.95;95700.44;5072297;28;20206;-56
2023/03/06 07:36:40;;;;;;;16.60;11.30;;;;;;;3.46;82.50;95704.13;5073858;28;20213;-55
2023/03/06 07:39:07;;;;;;;16.93;12.27;;;;;;;3.46;79.33;95693.66;5076495;28;20199;-54
2023/03/06 07:41:35;;;;;;;15.17;10.30;;;;;;;3.56;79.69;95694.59;5076314;28;20198;-55
2023/03/06 07:44:02;;;;;;;14.63;10.63;;;;;;;3.64;79.84;95693.97;5075551;28;20212;-56
2023/03/06 07:46:29;;;;;;;15.83;10.90;;;;;;;3.63;78.21;95695.75;5074431;28;20221;-55
2023/03/06 07:48:55;;;;;;;15.53;10.87;;;;;;;3.64;77.82;95702.66;5075373;28;20238;-55
2023/03/06 07:51:23;;;;;;;16.17;11.40;;;;;;;3.68;78.22;95698.84;5074126;28;20226;-55
2023/03/06 07:53:50;;;;;;;16.17;10.47;;;;;;;3.70;78.58;95702.13;5075297;28;20194;-54
2023/03/06 07:56:18;;;;;;;15.20;10.63;;;;;;;3.76;76.37;95709.47;5074202;28;20202;-55
2023/03/06 07:58:45;;;;;;;16.07;10.93;;;;;;;3.75;77.64;95701.78;5074976;28;20202;-56
2023/03/06 08:01:13;;;;;;;15.33;11.63;;;;;;;3.83;77.55;95700.19;5074587;28;20209;-56
2023/03/06 08:03:40;;;;;;;15.53;11.70;;;;;;;3.81;75.86;95703.88;5074883;28;20206;-56
2023/03/06 08:06:08;;;;;;;16.90;11.43;;;;;;;3.81;76.83;95715.19;5073998;28;20207;-56
2023/03/06 08:08:36;;;;;;;15.80;11.53;;;;;;;3.84;76.42;95709.69;5074701;28;20209;-56
2023/03/06 08:11:02;;;;;;;17.90;12.27;;;;;;;3.82;76.74;95706.38;5073987;28;20199;-55
2023/03/06 08:13:29;;;;;;;17.00;11.53;;;;;;;3.93;76.41;95711.53;5074321;28;20742;-56
2023/03/06 08:15:58;;;;;;;18.17;12.33;;;;;;;3.98;76.30;95713.78;5072744;28;20210;-56
2023/03/06 08:18:25;;;;;;;16.53;12.13;;;;;;;4.04;76.91;95712.47;5074296;28;20209;-55
2023/03/06 08:21:01;;;;;;;19.03;11.97;;;;;;;4.09;75.65;95712.91;5073294;28;20202;-56
2023/03/06 08:23:27;;;;;;;15.07;11.17;;;;;;;4.16;76.28;95714.06;5073952;28;20206;-56
2023/03/06 08:25:57;;;;;;;19.03;12.63;;;;;;;4.21;75.88;95715.38;5074081;28;20206;-56
2023/03/06 08:28:23;;;;;;;17.80;11.90;;;;;;;4.36;74.69;95710.63;5074813;28;20198;-55
2023/03/06 08:30:50;;;;;;;16.90;12.80;;;;;;;4.34;74.76;95723.00;5081506;28;20298;-57
2023/03/06 08:33:16;;;;;;;18.07;12.73;;;;;;;4.28;76.42;95724.38;5079369;28;20555;-56
2023/03/06 08:35:45;;;;;;;19.30;12.27;;;;;;;4.29;76.68;95719.94;5081697;28;20202;-56
2023/03/06 08:38:11;;;;;;;19.43;12.37;;;;;;;4.24;74.46;95724.75;5079029;28;20221;-57
2023/03/06 08:40:38;;;;;;;21.57;12.90;;;;;;;4.30;76.16;95727.69;5073958;28;20522;-56
2023/03/06 08:43:08;;;;;;;17.97;12.50;;;;;;;4.34;76.59;95736.09;5073709;28;20213;-55
2023/03/06 08:45:35;;;;;;;19.13;13.70;;;;;;;4.35;76.08;95733.38;5074030;28;20206;-56
2023/03/06 08:48:03;;;;;;;17.97;13.13;;;;;;;4.30;76.07;95727.69;5072678;28;20206;-55
2023/03/06 08:50:29;;;;;;;17.03;13.03;;;;;;;4.32;76.40;95735.41;5073306;28;20304;-56
2023/03/06 08:52:56;;;;;;;18.07;12.87;;;;;;;4.39;77.08;95733.94;5073070;28;20211;-55
2023/03/06 08:55:23;;;;;;;18.60;13.70;;;;;;;4.44;76.99;95737.00;5073265;28;20194;-56
2023/03/06 08:57:50;;;;;;;18.50;14.50;;;;;;;4.53;78.38;95738.84;5073672;28;20631;-56
2023/03/06 09:00:19;;;;;;;19.97;13.57;;;;;;;4.53;77.96;95731.00;5073843;28;20194;-56
2023/03/06 09:02:45;;;;;;;19.27;13.80;;;;;;;4.63;75.85;95739.75;5073494;28;20195;-55
2023/03/06 09:05:12;;;;;;;19.23;13.67;;;;;;;4.65;76.33;95737.81;5072917;28;20627;-55
2023/03/06 09:07:38;;;;;;;21.63;14.47;;;;;;;4.69;77.14;95741.84;5073120;28;20647;-56
2023/03/06 09:10:07;;;;;;;17.80;13.77;;;;;;;4.70;76.50;95729.56;5073181;28;20237;-56
2023/03/06 09:12:37;;;;;;;20.23;13.50;;;;;;;4.77;75.65;95738.56;5072976;28;20264;-56
2023/03/06 09:15:06;;;;;;;19.30;13.67;;;;;;;4.87;75.42;95742.06;5073449;28;20285;-56
2023/03/06 09:17:33;;;;;;;20.00;14.17;;;;;;;4.92;74.53;95740.69;5072485;28;20226;-56
2023/03/06 09:20:00;;;;;;;19.30;13.90;;;;;;;4.94;75.62;95744.03;5073570;28;20195;-56
2023/03/06 09:22:26;;;;;;;19.23;13.73;;;;;;;5.08;75.45;95737.63;5072976;28;20209;-56
2023/03/06 09:24:53;;;;;;;22.53;14.00;;;;;;;5.17;74.21;95743.88;5073693;28;20222;-56
2023/03/06 09:27:21;;;;;;;18.27;12.93;;;;;;;5.17;74.81;95741.25;5074454;28;20210;-56
2023/03/06 09:29:48;;;;;;;18.40;13.03;;;;;;;5.25;74.00;95741.41;5072534;28;20759;-55
2023/03/06 09:32:14;;;;;;;18.23;13.40;;;;;;;5.27;72.99;95742.09;5072665;28;20887;-56
2023/03/06 09:34:43;;;;;;;19.93;14.27;;;;;;;5.31;71.44;95738.25;5072607;28;20203;-55
2023/03/06 09:37:09;;;;;;;19.30;13.37;;;;;;;5.43;73.28;95737.19;5073052;28;20232;-56
2023/03/06 09:39:38;;;;;;;19.63;14.17;;;;;;;5.57;72.38;95743.84;5072489;28;20211;-56
2023/03/06 09:42:07;;;;;;;19.03;13.73;;;;;;;5.65;72.00;95736.97;5072699;28;20213;-56
2023/03/06 09:44:35;;;;;;;18.90;13.33;;;;;;;5.80;71.54;95738.25;5072166;28;20695;-55
2023/03/06 09:47:34;;;;;;;19.83;14.27;;;;;;;5.98;72.62;95738.44;5071984;28;20214;-55
2023/03/06 09:50:09;;;;;;;16.97;12.63;;;;;;;6.07;70.40;95734.97;5060615;28;20226;-56
2023/03/06 09:52:39;;;;;;;18.23;12.47;;;;;;;6.15;69.07;95740.38;5072244;28;20198;-56
2023/03/06 09:55:11;;;;;;;17.50;12.80;;;;;;;6.15;69.38;95731.66;5072622;28;20195;-56
2023/03/06 09:57:42;;;;;;;17.77;13.20;;;;;;;6.18;68.92;95734.84;5072310;28;20265;-56
2023/03/06 10:00:13;;;;;;;15.37;11.87;;;;;;;6.31;68.28;95734.53;5072429;28;20194;-55
2023/03/06 10:02:42;;;;;;;18.17;13.00;;;;;;;6.50;66.81;95737.16;5074406;28;20222;-56
2023/03/06 10:05:14;;;;;;;16.70;11.87;;;;;;;6.50;66.58;95731.91;5076622;28;20198;-56
2023/03/06 10:07:46;;;;;;;15.53;12.10;;;;;;;6.56;68.04;95728.72;5076542;28;20195;-56
2023/03/06 10:10:18;;;;;;;16.50;12.43;;;;;;;6.66;66.33;95721.63;5073612;28;20214;-55
2023/03/06 10:12:49;;;;;;;15.67;12.20;;;;;;;6.79;67.39;95722.19;5073208;28;20202;-56
2023/03/06 10:15:18;;;;;;;13.73;10.47;;;;;;;6.80;64.71;95723.81;5071946;28;20207;-56
2023/03/06 10:17:45;;;;;;;13.70;10.20;;;;;;;6.61;63.44;95721.25;5071910;28;20207;-56
2023/03/06 10:20:22;;;;;;;14.50;10.87;;;;;;;6.58;64.50;95718.91;5071766;28;20583;-56
2023/03/06 10:23:10;;;;;;;13.43;11.10;;;;;;;6.59;64.91;95728.44;5072172;28;20198;-54
2023/03/06 10:25:43;;;;;;;14.97;10.63;;;;;;;6.67;65.06;95723.31;5071025;28;20578;-55
2023/03/06 10:28:15;;;;;;;12.73;10.10;;;;;;;6.65;62.97;95725.25;5072416;28;20206;-56
2023/03/06 10:30:48;;;;;;;13.37;10.90;;;;;;;6.69;63.49;95726.63;5071813;28;20225;-56
2023/03/06 10:33:22;;;;;;;13.87;10.10;;;;;;;6.66;65.55;95723.47;5072130;28;20217;-55
2023/03/06 10:35:52;;;;;;;17.10;9.73;;;;;;;6.84;65.21;95714.69;5072164;28;20219;-54
2023/03/06 10:38:22;;;;;;;15.63;11.20;;;;;;;7.00;63.83;95724.59;5071023;28;20252;-56
2023/03/06 10:40:56;;;;;;;13.57;10.70;;;;;;;7.11;64.50;95721.81;5071618;28;20199;-56
2023/03/06 10:43:23;;;;;;;13.07;10.57;;;;;;;7.08;63.36;95719.47;5071040;28;20194;-55
2023/03/06 10:45:51;;;;;;;15.47;10.63;;;;;;;7.23;63.35;95714.53;5071102;28;20199;-56
2023/03/06 10:48:20;;;;;;;13.17;10.27;;;;;;;7.20;62.33;95709.56;5070895;28;20706;-56
2023/03/06 10:50:47;;;;;;;12.90;10.87;;;;;;;7.26;62.35;95714.28;5071142;28;20206;-56
2023/03/06 10:53:28;;;;;;;13.43;10.30;;;;;;;7.37;62.78;95708.78;5071215;28;20206;-56
2023/03/06 10:55:57;;;;;;;11.77;10.10;;;;;;;7.31;61.72;95712.84;5071991;28;20208;-56
2023/03/06 10:58:26;;;;;;;13.93;10.77;;;;;;;7.30;61.81;95711.19;5071192;28;20294;-55
2023/03/06 11:01:07;;;;;;;12.60;10.40;;;;;;;7.32;61.34;95716.31;5071030;28;20195;-56
2023/03/06 11:03:35;;;;;;;12.87;11.07;;;;;;;7.27;62.40;95715.91;5071761;28;20286;-54
2023/03/06 11:06:07;;;;;;;13.07;10.13;;;;;;;7.23;61.68;95715.38;5071216;28;20210;-56
2023/03/06 11:08:37;;;;;;;14.83;9.97;;;;;;;7.14;62.55;95718.03;5071511;28;20218;-56
2023/03/06 11:11:07;;;;;;;15.83;10.60;;;;;;;7.20;62.19;95713.03;5071038;28;20219;-56
2023/03/06 11:13:35;;;;;;;12.57;10.13;;;;;;;7.10;63.55;95719.31;5071129;28;20538;-55
2023/03/06 11:16:05;;;;;;;10.87;9.63;;;;;;;7.20;63.38;95725.34;5070814;28;20206;-54
2023/03/06 11:18:36;;;;;;;12.57;9.73;;;;;;;7.25;61.20;95717.88;5071162;28;20218;-55
2023/03/06 11:21:07;;;;;;;15.27;10.43;;;;;;;7.24;62.73;95718.81;5070924;28;20194;-57
2023/03/06 11:23:41;;;;;;;13.10;10.20;;;;;;;7.22;61.73;95715.53;5069347;28;20211;-55
2023/03/06 11:26:24;;;;;;;12.00;10.70;;;;;;;7.23;61.09;95704.84;5071199;28;20195;-55
2023/03/06 11:29:05;;;;;;;13.47;10.60;;;;;;;7.20;61.82;95705.16;5070484;28;20233;-55
2023/03/06 11:31:33;;;;;;;14.00;10.87;;;;;;;7.05;62.01;95706.59;5070435;28;20212;-56
2023/03/06 11:34:05;;;;;;;13.80;10.57;;;;;;;7.16;63.37;95700.31;5071121;28;20237;-56